createdAt,value
2023-07-11T00:00:55.612Z,23.01
2023-07-11T00:03:28.177Z,22.98
2023-07-11T00:06:06.381Z,22.94
2023-07-11T00:08:38.553Z,22.89
2023-07-11T00:11:10.973Z,22.86
2023-07-11T00:13:42.658Z,22.84
2023-07-11T00:16:15.824Z,22.80
2023-07-11T00:18:47.494Z,22.76
2023-07-11T00:21:19.065Z,22.72
2023-07-11T00:23:50.598Z,22.70
2023-07-11T00:26:22.148Z,22.63
2023-07-11T00:28:53.729Z,22.59
2023-07-11T00:31:25.405Z,22.54
2023-07-11T00:33:57.019Z,22.54
2023-07-11T00:36:28.591Z,22.49
2023-07-11T00:39:00.125Z,22.48
2023-07-11T00:41:32.788Z,22.44
2023-07-11T00:44:04.472Z,22.43
2023-07-11T00:46:35.985Z,22.42
2023-07-11T00:49:09.669Z,22.38
2023-07-11T00:51:46.433Z,22.35
2023-07-11T00:54:20.792Z,22.32
2023-07-11T00:56:52.770Z,22.29
2023-07-11T00:59:24.535Z,22.24
2023-07-11T01:02:15.162Z,22.23
2023-07-11T01:04:46.874Z,22.18
2023-07-11T01:07:22.484Z,22.15
2023-07-11T01:09:54.157Z,22.11
2023-07-11T01:12:26.118Z,22.10
2023-07-11T01:14:57.594Z,22.06
2023-07-11T01:17:34.873Z,22.03
2023-07-11T01:20:09.533Z,22.02
2023-07-11T01:22:41.131Z,21.98
2023-07-11T01:25:15.515Z,21.96
2023-07-11T01:27:48.930Z,21.95
2023-07-11T01:30:24.165Z,21.91
2023-07-11T01:32:55.843Z,21.88
2023-07-11T01:35:27.453Z,21.83
2023-07-11T01:37:59.211Z,21.82
2023-07-11T01:40:30.760Z,21.79
2023-07-11T01:43:03.052Z,21.78
2023-07-11T01:45:34.578Z,21.75
2023-07-11T01:48:06.338Z,21.71
2023-07-11T01:50:37.976Z,21.67
2023-07-11T01:53:09.665Z,21.66
2023-07-11T01:55:41.285Z,21.63
2023-07-11T01:58:12.811Z,21.58
2023-07-11T02:00:44.304Z,21.56
2023-07-11T02:03:15.907Z,21.51
2023-07-11T02:05:47.533Z,21.48
2023-07-11T02:08:19.274Z,21.44
2023-07-11T02:10:50.801Z,21.41
2023-07-11T02:13:22.371Z,21.36
2023-07-11T02:15:54.000Z,21.34
2023-07-11T02:18:25.695Z,21.32
2023-07-11T02:20:57.991Z,21.30
2023-07-11T02:23:29.546Z,21.29
2023-07-11T02:26:01.139Z,21.28
2023-07-11T02:28:32.719Z,21.26
2023-07-11T02:31:04.344Z,21.24
2023-07-11T02:33:35.871Z,21.22
2023-07-11T02:36:07.663Z,21.20
2023-07-11T02:38:39.186Z,21.17
2023-07-11T02:41:10.748Z,21.15
2023-07-11T02:43:42.301Z,21.14
2023-07-11T02:46:15.647Z,21.12
2023-07-11T02:48:47.293Z,21.08
2023-07-11T02:51:19.077Z,21.05
2023-07-11T02:53:51.075Z,21.03
2023-07-11T02:56:22.568Z,21.01
2023-07-11T02:58:54.203Z,20.99
2023-07-11T03:01:25.939Z,20.97
2023-07-11T03:03:57.529Z,20.92
2023-07-11T03:06:30.046Z,20.92
2023-07-11T03:09:01.581Z,20.90
2023-07-11T03:11:33.130Z,20.85
2023-07-11T03:14:04.721Z,20.83
2023-07-11T03:16:36.344Z,20.83
2023-07-11T03:19:07.864Z,20.81
2023-07-11T03:21:39.422Z,20.79
2023-07-11T03:24:11.394Z,20.76
2023-07-11T03:26:45.046Z,20.71
2023-07-11T03:29:16.701Z,20.65
2023-07-11T03:31:48.234Z,20.64
2023-07-11T03:34:19.754Z,20.63
2023-07-11T03:36:51.358Z,20.62
2023-07-11T03:39:22.955Z,20.60
2023-07-11T03:41:54.528Z,20.56
2023-07-11T03:44:26.047Z,20.55
2023-07-11T03:46:57.662Z,20.56
2023-07-11T03:49:29.188Z,20.58
2023-07-11T03:52:00.715Z,20.58
2023-07-11T03:54:32.222Z,20.61
2023-07-11T03:57:03.840Z,20.63
2023-07-11T03:59:35.408Z,20.64
2023-07-11T04:02:07.027Z,20.64
2023-07-11T04:04:38.553Z,20.65
2023-07-11T04:07:10.236Z,20.67
2023-07-11T04:09:41.959Z,20.71
2023-07-11T04:12:13.521Z,20.73
2023-07-11T04:14:45.212Z,20.75
2023-07-11T04:17:16.798Z,20.76
2023-07-11T04:19:48.390Z,20.74
2023-07-11T04:22:20.748Z,20.77
2023-07-11T04:24:52.258Z,20.80
2023-07-11T04:27:26.055Z,20.82
2023-07-11T04:29:57.585Z,20.86
2023-07-11T04:32:30.076Z,20.90
2023-07-11T04:35:01.638Z,20.95
2023-07-11T04:37:33.340Z,20.98
2023-07-11T04:40:05.385Z,21.05
2023-07-11T04:42:36.865Z,21.09
2023-07-11T04:45:09.975Z,21.19
2023-07-11T04:47:41.910Z,21.24
2023-07-11T04:50:13.373Z,21.29
2023-07-11T04:52:45.432Z,21.37
2023-07-11T04:55:17.047Z,21.40
2023-07-11T04:57:48.926Z,21.44
2023-07-11T05:00:20.462Z,21.47
2023-07-11T05:02:52.025Z,21.52
2023-07-11T05:05:23.711Z,21.58
2023-07-11T05:07:55.233Z,21.62
2023-07-11T05:10:26.798Z,21.69
2023-07-11T05:12:58.340Z,21.74
2023-07-11T05:15:29.975Z,21.80
2023-07-11T05:18:01.679Z,21.87
2023-07-11T05:20:33.327Z,21.94
2023-07-11T05:23:04.849Z,21.99
2023-07-11T05:25:38.626Z,22.07
2023-07-11T05:28:10.145Z,22.13
2023-07-11T05:30:41.709Z,22.22
2023-07-11T05:33:13.523Z,22.23
2023-07-11T05:36:03.942Z,22.33
2023-07-11T05:38:35.831Z,22.35
2023-07-11T05:41:07.371Z,22.46
2023-07-11T05:43:38.915Z,22.55
2023-07-11T05:46:10.869Z,22.63
2023-07-11T05:48:42.634Z,22.71
2023-07-11T05:51:18.059Z,22.78
2023-07-11T05:53:52.774Z,22.81
2023-07-11T05:56:24.962Z,22.91
2023-07-11T05:58:56.536Z,23.00
2023-07-11T06:01:31.145Z,23.02
2023-07-11T06:04:04.211Z,23.10
2023-07-11T06:06:42.760Z,23.20
2023-07-11T06:09:20.048Z,23.28
2023-07-11T06:11:51.681Z,23.38
2023-07-11T06:14:24.323Z,23.46
2023-07-11T06:16:56.181Z,23.55
2023-07-11T06:19:27.798Z,23.62
2023-07-11T06:21:59.476Z,23.69
2023-07-11T06:24:31.071Z,23.77
2023-07-11T06:27:02.818Z,23.86
2023-07-11T06:29:34.434Z,23.95
2023-07-11T06:32:06.777Z,24.01
2023-07-11T06:34:38.394Z,24.08
2023-07-11T06:37:09.910Z,24.15
2023-07-11T06:39:41.603Z,24.23
2023-07-11T06:42:13.495Z,24.29
2023-07-11T06:44:44.859Z,24.37
2023-07-11T06:47:16.458Z,24.43
2023-07-11T06:49:48.323Z,24.52
2023-07-11T06:52:19.773Z,24.57
2023-07-11T06:54:51.530Z,24.62
2023-07-11T06:57:23.146Z,24.69
2023-07-11T06:59:54.664Z,24.76
2023-07-11T07:02:26.469Z,24.85
2023-07-11T07:04:58.130Z,24.93
2023-07-11T07:07:29.827Z,24.97
2023-07-11T07:10:01.681Z,25.05
2023-07-11T07:12:33.179Z,25.09
2023-07-11T07:15:05.097Z,25.20
2023-07-11T07:17:36.561Z,25.26
2023-07-11T07:20:08.917Z,25.29
2023-07-11T07:22:40.579Z,25.32
2023-07-11T07:25:24.070Z,25.44
2023-07-11T07:27:56.141Z,25.55
2023-07-11T07:30:27.747Z,25.61
2023-07-11T07:32:59.456Z,25.67
2023-07-11T07:35:30.963Z,25.72
2023-07-11T07:38:04.157Z,25.77
2023-07-11T07:40:35.828Z,25.75
2023-07-11T07:43:07.530Z,25.82
2023-07-11T07:45:39.023Z,25.88
2023-07-11T07:48:10.854Z,25.95
2023-07-11T07:50:42.581Z,26.02
2023-07-11T07:53:15.230Z,26.08
2023-07-11T07:55:46.835Z,26.16
2023-07-11T07:58:30.375Z,26.24
2023-07-11T08:01:10.130Z,26.33
2023-07-11T08:03:42.504Z,26.37
2023-07-11T08:06:17.476Z,26.40
2023-07-11T08:08:50.973Z,26.47
2023-07-11T08:11:22.757Z,26.58
2023-07-11T08:13:59.907Z,26.66
2023-07-11T08:16:34.297Z,26.70
2023-07-11T08:19:07.717Z,26.73
2023-07-11T08:21:39.672Z,26.81
2023-07-11T08:24:11.288Z,26.86
2023-07-11T08:26:43.775Z,26.82
2023-07-11T08:29:28.539Z,26.91
2023-07-11T08:32:02.044Z,27.01
2023-07-11T08:34:33.751Z,27.14
2023-07-11T08:37:05.247Z,27.25
2023-07-11T08:39:38.075Z,27.39
2023-07-11T08:42:33.515Z,27.48
2023-07-11T08:45:16.226Z,27.55
2023-07-11T08:48:14.688Z,27.62
2023-07-11T08:51:10.884Z,27.62
2023-07-11T08:53:49.690Z,27.68
2023-07-11T08:56:41.119Z,27.83
2023-07-11T08:59:56.293Z,27.87
2023-07-11T09:02:52.501Z,27.97
2023-07-11T09:05:34.210Z,28.05
2023-07-11T09:08:05.969Z,28.08
2023-07-11T09:10:59.317Z,28.23
2023-07-11T09:13:55.833Z,28.42
2023-07-11T09:16:33.462Z,28.58
2023-07-11T09:19:20.043Z,28.73
2023-07-11T09:22:07.782Z,28.91
2023-07-11T09:25:17.699Z,28.97
2023-07-11T09:28:13.150Z,29.14
2023-07-11T09:30:56.720Z,29.27
2023-07-11T09:33:39.856Z,29.37
2023-07-11T09:36:25.238Z,29.55
2023-07-11T09:39:15.557Z,29.68
2023-07-11T09:41:56.996Z,29.71
2023-07-11T09:44:28.637Z,29.87
2023-07-11T09:47:06.010Z,30.00
2023-07-11T09:49:38.606Z,29.80
2023-07-11T09:52:14.892Z,30.06
2023-07-11T09:57:22.249Z,30.49
2023-07-11T10:00:12.228Z,30.55
2023-07-11T10:02:53.063Z,30.40
2023-07-11T10:05:25.778Z,30.48
2023-07-11T10:08:14.459Z,30.79
2023-07-11T10:10:54.483Z,31.40
2023-07-11T10:13:37.942Z,31.96
2023-07-11T10:16:19.306Z,32.46
2023-07-11T10:18:52.635Z,32.40
2023-07-11T10:21:31.811Z,32.20
2023-07-11T10:24:04.086Z,32.11
2023-07-11T10:26:39.563Z,32.49
2023-07-11T10:29:25.203Z,32.76
2023-07-11T10:32:02.086Z,32.43
2023-07-11T10:34:44.905Z,32.51
2023-07-11T10:37:57.747Z,32.35
2023-07-11T10:40:34.088Z,32.50
2023-07-11T10:43:27.648Z,32.69
2023-07-11T10:46:07.360Z,32.69
2023-07-11T10:48:55.813Z,32.76
2023-07-11T10:51:40.034Z,32.74
2023-07-11T10:54:39.232Z,33.05
2023-07-11T10:57:44.117Z,32.91
2023-07-11T11:00:20.173Z,32.45
2023-07-11T11:03:09.239Z,32.42
2023-07-11T11:06:06.877Z,32.53
2023-07-11T11:09:00.878Z,32.33
2023-07-11T11:12:04.263Z,32.73
2023-07-11T11:15:08.932Z,32.93
2023-07-11T11:18:01.929Z,33.25
2023-07-11T11:21:19.556Z,33.11
2023-07-11T11:24:02.418Z,33.05
2023-07-11T11:26:52.434Z,33.37
2023-07-11T11:29:29.712Z,32.92
2023-07-11T11:32:10.434Z,33.19
2023-07-11T11:35:24.640Z,33.10
2023-07-11T11:38:20.837Z,33.09
2023-07-11T11:40:59.883Z,33.15
2023-07-11T11:43:35.671Z,33.01
2023-07-11T11:51:36.860Z,33.22
2023-07-11T11:54:20.379Z,33.05
2023-07-11T11:56:59.426Z,33.00
2023-07-11T11:59:32.752Z,33.38
2023-07-11T12:02:16.188Z,33.56
2023-07-11T12:05:18.368Z,33.93
2023-07-11T12:08:26.592Z,33.45
2023-07-11T12:11:21.495Z,33.74
2023-07-11T12:14:26.866Z,33.99
2023-07-11T12:16:59.429Z,33.73
2023-07-11T12:19:41.334Z,33.96
2023-07-11T12:22:15.034Z,34.49
2023-07-11T12:24:59.385Z,34.71
2023-07-11T12:27:30.844Z,34.96
2023-07-11T12:30:23.317Z,35.11
2023-07-11T12:32:58.842Z,35.11
2023-07-11T12:35:37.144Z,34.48
2023-07-11T12:38:15.619Z,34.77
2023-07-11T12:41:13.312Z,34.53
2023-07-11T12:43:48.199Z,34.09
2023-07-11T12:46:28.667Z,34.46
2023-07-11T12:49:01.234Z,34.54
2023-07-11T12:51:39.301Z,34.66
2023-07-11T12:54:10.792Z,35.16
2023-07-11T12:56:45.511Z,35.14
2023-07-11T12:59:29.554Z,35.37
2023-07-11T13:02:05.496Z,35.29
2023-07-11T13:05:04.683Z,34.81
2023-07-11T13:07:37.610Z,35.53
2023-07-11T13:10:25.017Z,35.51
2023-07-11T13:12:57.098Z,35.44
2023-07-11T13:15:29.035Z,35.59
2023-07-11T13:18:01.008Z,35.86
2023-07-11T13:20:36.973Z,35.54
2023-07-11T13:23:11.320Z,35.60
2023-07-11T13:25:43.818Z,36.12
2023-07-11T13:28:23.084Z,36.34
2023-07-11T13:30:59.636Z,35.89
2023-07-11T13:38:53.701Z,36.08
2023-07-11T13:41:32.349Z,36.29
2023-07-11T13:44:14.358Z,36.12
2023-07-11T13:46:46.804Z,36.29
2023-07-11T13:49:35.036Z,36.35
2023-07-11T13:52:18.427Z,36.20
2023-07-11T13:54:56.428Z,36.06
2023-07-11T13:57:28.028Z,36.34
2023-07-11T14:00:11.436Z,36.28
2023-07-11T14:02:46.608Z,36.43
2023-07-11T14:05:26.894Z,36.44
2023-07-11T14:08:01.751Z,36.44
2023-07-11T14:10:33.345Z,36.93
2023-07-11T14:13:12.732Z,36.67
2023-07-11T14:15:44.465Z,36.46
2023-07-11T14:18:16.178Z,36.82
2023-07-11T14:20:47.729Z,36.97
2023-07-11T14:23:24.891Z,36.26
2023-07-11T14:25:56.749Z,36.49
2023-07-11T14:28:28.760Z,36.60
2023-07-11T14:31:02.850Z,36.18
2023-07-11T14:33:34.931Z,36.55
2023-07-11T14:36:06.838Z,37.05
2023-07-11T14:38:38.392Z,37.55
2023-07-11T14:41:12.898Z,37.73
2023-07-11T14:43:44.651Z,37.20
2023-07-11T14:46:16.203Z,37.35
2023-07-11T14:48:47.772Z,37.68
2023-07-11T14:51:19.322Z,37.81
2023-07-11T14:53:51.473Z,37.73
2023-07-11T14:58:58.264Z,37.98
2023-07-11T15:01:29.906Z,37.69
2023-07-11T15:12:05.420Z,38.10
2023-07-11T15:15:23.284Z,38.24
2023-07-11T15:17:32.807Z,39.10
2023-07-11T15:20:10.041Z,40.09
2023-07-11T15:22:44.143Z,41.36
2023-07-11T15:25:23.242Z,43.13
2023-07-11T15:27:55.115Z,43.71
2023-07-11T15:30:27.725Z,44.39
2023-07-11T15:32:59.390Z,45.82
2023-07-11T15:35:31.252Z,44.55
2023-07-11T15:38:02.892Z,45.23
2023-07-11T15:40:34.501Z,46.28
2023-07-11T15:43:06.076Z,46.36
2023-07-11T15:45:38.644Z,45.51
2023-07-11T15:48:11.353Z,46.16
2023-07-11T15:50:43.438Z,48.33
2023-07-11T15:53:15.056Z,48.23
2023-07-11T15:55:46.801Z,48.09
2023-07-11T15:58:26.298Z,47.69
2023-07-11T16:00:57.959Z,46.32
2023-07-11T16:03:30.565Z,45.66
2023-07-11T16:06:02.473Z,48.23
2023-07-11T16:08:37.561Z,47.81
2023-07-11T16:11:10.910Z,46.15
2023-07-11T16:13:43.417Z,43.41
2023-07-11T16:16:18.689Z,41.76
2023-07-11T16:18:50.680Z,39.91
2023-07-11T16:21:22.240Z,39.27
2023-07-11T16:23:53.812Z,39.41
2023-07-11T16:26:28.997Z,38.55
2023-07-11T16:29:01.477Z,38.52
2023-07-11T16:31:33.135Z,38.39
2023-07-11T16:34:30.891Z,37.78
2023-07-11T16:37:02.852Z,37.52
2023-07-11T16:39:34.919Z,37.01
2023-07-11T16:42:19.497Z,37.10
2023-07-11T16:44:51.091Z,37.00
2023-07-11T16:47:25.599Z,36.92
2023-07-11T16:49:57.713Z,36.71
2023-07-11T16:52:29.251Z,36.30
2023-07-11T16:55:01.005Z,36.28
2023-07-11T16:57:32.663Z,36.18
2023-07-11T17:00:05.898Z,35.88
2023-07-11T17:02:37.607Z,35.61
2023-07-11T17:05:09.665Z,35.63
2023-07-11T17:07:41.752Z,35.39
2023-07-11T17:10:14.172Z,35.31
2023-07-11T17:12:45.956Z,35.18
2023-07-11T17:15:19.045Z,35.23
2023-07-11T17:17:50.870Z,35.14
2023-07-11T17:20:22.472Z,34.88
2023-07-11T17:22:54.111Z,34.89
2023-07-11T17:25:25.769Z,34.62
2023-07-11T17:27:57.774Z,34.78
2023-07-11T17:30:29.374Z,34.56
2023-07-11T17:33:00.992Z,34.45
2023-07-11T17:35:32.584Z,34.11
2023-07-11T17:38:05.142Z,34.13
2023-07-11T17:40:36.717Z,34.22
2023-07-11T17:43:19.968Z,34.12
2023-07-11T17:46:01.341Z,34.18
2023-07-11T17:48:44.250Z,33.96
2023-07-11T17:51:16.944Z,33.96
2023-07-11T17:53:49.972Z,33.94
2023-07-11T17:56:21.508Z,33.71
2023-07-11T17:58:53.628Z,33.74
2023-07-11T18:01:26.337Z,33.77
2023-07-11T18:03:58.007Z,33.68
2023-07-11T18:06:29.654Z,33.67
2023-07-11T18:09:01.260Z,33.58
2023-07-11T18:11:33.068Z,33.43
2023-07-11T18:14:06.610Z,33.23
2023-07-11T18:16:38.554Z,33.32
2023-07-11T18:19:10.979Z,33.27
2023-07-11T18:21:42.518Z,33.30
2023-07-11T18:24:14.112Z,33.27
2023-07-11T18:26:45.643Z,33.20
2023-07-11T18:29:17.185Z,33.23
2023-07-11T18:31:48.848Z,33.20
2023-07-11T18:34:21.589Z,33.15
2023-07-11T18:36:53.870Z,33.07
2023-07-11T18:39:26.449Z,32.93
2023-07-11T18:41:58.867Z,32.78
2023-07-11T18:44:30.461Z,32.62
2023-07-11T18:47:02.022Z,32.46
2023-07-11T18:49:33.582Z,32.30
2023-07-11T18:52:09.276Z,32.14
2023-07-11T18:54:40.882Z,31.98
2023-07-11T18:57:16.761Z,31.84
2023-07-11T18:59:48.765Z,31.72
2023-07-11T19:02:25.034Z,31.58
2023-07-11T19:04:59.738Z,31.45
2023-07-11T19:07:34.073Z,31.32
2023-07-11T19:10:16.977Z,31.23
2023-07-11T19:12:49.350Z,31.09
2023-07-11T19:15:26.434Z,30.97
2023-07-11T19:18:03.155Z,30.86
2023-07-11T19:20:40.095Z,30.75
2023-07-11T19:23:21.300Z,30.62
2023-07-11T19:25:54.732Z,30.55
2023-07-11T19:28:31.617Z,30.43
2023-07-11T19:31:03.540Z,30.33
2023-07-11T19:33:35.169Z,30.22
2023-07-11T19:36:15.413Z,30.12
2023-07-11T19:38:47.060Z,30.06
2023-07-11T19:41:20.436Z,30.01
2023-07-11T19:43:51.997Z,29.97
2023-07-11T19:46:23.686Z,29.86
2023-07-11T19:48:56.314Z,29.80
2023-07-11T19:51:27.837Z,29.73
2023-07-11T19:53:59.216Z,29.65
2023-07-11T19:56:30.955Z,29.58
2023-07-11T19:59:03.689Z,29.52
2023-07-11T20:01:35.409Z,29.45
2023-07-11T20:04:06.924Z,29.36
2023-07-11T20:06:38.578Z,29.33
2023-07-11T20:09:10.100Z,29.29
2023-07-11T20:11:41.666Z,29.23
2023-07-11T20:14:13.062Z,29.16
2023-07-11T20:16:44.793Z,29.10
2023-07-11T20:19:16.401Z,29.01
2023-07-11T20:21:47.822Z,28.94
2023-07-11T20:24:19.325Z,28.90
2023-07-11T20:26:51.057Z,28.81
2023-07-11T20:29:22.642Z,28.78
2023-07-11T20:31:54.040Z,28.73
2023-07-11T20:34:25.600Z,28.71
2023-07-11T20:36:57.037Z,28.67
2023-07-11T20:39:28.563Z,28.64
2023-07-11T20:42:00.029Z,28.60
2023-07-11T20:44:31.563Z,28.57
2023-07-11T20:47:04.145Z,28.53
2023-07-11T20:49:37.162Z,28.51
2023-07-11T20:52:12.125Z,28.45
2023-07-11T20:54:43.745Z,28.41
2023-07-11T20:57:15.496Z,28.37
2023-07-11T20:59:49.138Z,28.37
2023-07-11T21:02:20.724Z,28.34
2023-07-11T21:04:52.095Z,28.31
2023-07-11T21:07:25.166Z,28.31
2023-07-11T21:09:58.433Z,28.28
2023-07-11T21:12:30.108Z,28.25
2023-07-11T21:15:01.646Z,28.26
2023-07-11T21:17:33.976Z,28.25
2023-07-11T21:20:06.917Z,28.22
2023-07-11T21:22:38.825Z,28.20
2023-07-11T21:25:10.874Z,28.20
2023-07-11T21:27:42.442Z,28.19
2023-07-11T21:30:24.032Z,28.19
2023-07-11T21:32:56.069Z,28.17
2023-07-11T21:35:28.362Z,28.13
2023-07-11T21:38:00.486Z,27.97
2023-07-11T21:40:36.967Z,26.81
2023-07-11T21:43:09.103Z,25.01
2023-07-11T21:45:41.335Z,23.83
2023-07-11T21:50:54.444Z,20.88
2023-07-11T21:53:31.240Z,-143.80
2023-07-11T21:56:15.867Z,-143.80
2023-07-11T21:58:47.949Z,-143.80
2023-07-11T22:01:21.030Z,-143.80
2023-07-11T22:03:52.896Z,-143.80
2023-07-11T22:06:28.289Z,-143.80
2023-07-11T22:09:00.146Z,-143.80
2023-07-11T22:11:31.735Z,-143.80
2023-07-11T22:14:06.437Z,-143.80
2023-07-11T22:16:38.355Z,-143.80
2023-07-11T22:19:13.755Z,-143.80
2023-07-11T22:21:47.870Z,-143.80
2023-07-11T22:24:19.478Z,-143.80
2023-07-11T22:26:51.125Z,-143.80
2023-07-11T22:29:22.728Z,-143.80
2023-07-11T22:31:55.011Z,-143.80
2023-07-11T22:34:26.627Z,-143.80
2023-07-11T22:36:58.157Z,-143.80
2023-07-11T22:39:29.774Z,-143.80
2023-07-11T22:42:02.463Z,-143.80
2023-07-11T22:44:33.980Z,-143.80
2023-07-11T22:47:06.124Z,-143.80
2023-07-11T22:49:37.708Z,-143.80
2023-07-11T22:52:09.313Z,-143.80
2023-07-11T22:54:41.108Z,-143.80
2023-07-11T22:57:12.736Z,-143.80
2023-07-11T22:59:44.240Z,-143.80
2023-07-11T23:02:16.044Z,-143.80
2023-07-11T23:04:47.629Z,-143.80
2023-07-11T23:07:19.215Z,-143.80
2023-07-11T23:09:50.784Z,-143.80
2023-07-11T23:12:22.545Z,-143.80
2023-07-11T23:14:54.147Z,-143.80
2023-07-11T23:17:25.825Z,-143.80
2023-07-11T23:19:57.572Z,-143.80
2023-07-11T23:22:30.002Z,-143.80
2023-07-11T23:25:04.113Z,-143.80
2023-07-11T23:27:35.673Z,-143.80
2023-07-11T23:30:15.687Z,-143.80
2023-07-11T23:32:49.049Z,-143.80
2023-07-11T23:35:24.309Z,-143.80
2023-07-11T23:37:57.747Z,-143.80
2023-07-11T23:40:46.518Z,-143.80
2023-07-11T23:43:20.033Z,-143.80
2023-07-11T23:45:53.281Z,-143.80
2023-07-11T23:48:27.447Z,-143.80
2023-07-11T23:51:01.793Z,-143.80
2023-07-11T23:53:33.412Z,-143.80
2023-07-11T23:56:25.331Z,-143.80
2023-07-11T23:58:57.964Z,-143.80
